createdAt,value
2022-08-20T00:00:06.033Z,46.42
2022-08-20T00:02:46.058Z,47.28
2022-08-20T00:05:14.184Z,45.08
2022-08-20T00:07:41.026Z,43.42
2022-08-20T00:10:08.920Z,36.20
2022-08-20T00:12:37.703Z,39.65
2022-08-20T00:15:06.746Z,37.17
2022-08-20T00:17:42.983Z,40.85
2022-08-20T00:20:13.399Z,42.67
2022-08-20T00:22:40.194Z,43.05
2022-08-20T00:25:07.802Z,51.55
2022-08-20T00:27:34.558Z,44.53
2022-08-20T00:30:01.642Z,44.95
2022-08-20T00:32:28.347Z,45.50
2022-08-20T00:34:55.011Z,43.28
2022-08-20T00:37:21.702Z,36.90
2022-08-20T00:39:48.402Z,41.22
2022-08-20T00:42:15.129Z,36.70
2022-08-20T00:44:47.305Z,38.72
2022-08-20T00:47:14.027Z,40.53
2022-08-20T00:49:40.732Z,44.97
2022-08-20T00:52:19.644Z,41.15
2022-08-20T00:54:53.962Z,51.83
2022-08-20T00:57:46.099Z,46.03
2022-08-20T01:00:32.124Z,49.42
2022-08-20T01:03:00.585Z,55.70
2022-08-20T01:05:29.816Z,44.50
2022-08-20T01:07:57.505Z,50.78
2022-08-20T01:10:28.008Z,55.70
2022-08-20T01:12:59.500Z,47.75
2022-08-20T01:15:31.054Z,46.20
2022-08-20T01:18:00.266Z,42.17
2022-08-20T01:20:57.617Z,44.50
2022-08-20T01:23:30.253Z,42.78
2022-08-20T01:26:09.627Z,43.00
2022-08-20T01:28:45.634Z,40.50
2022-08-20T01:31:16.050Z,44.45
2022-08-20T01:33:45.364Z,43.03
2022-08-20T01:36:15.426Z,32.83
2022-08-20T01:38:53.882Z,36.72
2022-08-20T01:41:43.680Z,43.00
2022-08-20T01:44:16.680Z,45.03
2022-08-20T01:46:48.127Z,37.17
2022-08-20T01:49:35.749Z,45.45
2022-08-20T01:52:07.713Z,61.08
2022-08-20T01:54:34.582Z,44.20
2022-08-20T01:57:06.222Z,44.67
2022-08-20T01:59:32.986Z,38.38
2022-08-20T02:02:00.482Z,41.33
2022-08-20T02:04:27.254Z,39.47
2022-08-20T02:06:58.992Z,41.53
2022-08-20T02:09:27.495Z,64.95
2022-08-20T02:11:54.546Z,45.88
2022-08-20T02:14:21.515Z,41.40
2022-08-20T02:16:55.033Z,47.90
2022-08-20T02:19:50.806Z,43.70
2022-08-20T02:22:35.772Z,52.45
2022-08-20T02:25:06.432Z,46.20
2022-08-20T02:27:33.227Z,45.40
2022-08-20T02:30:02.152Z,55.15
2022-08-20T02:32:33.940Z,60.40
2022-08-20T02:35:04.183Z,52.90
2022-08-20T02:37:31.534Z,55.33
2022-08-20T02:39:58.483Z,67.07
2022-08-20T02:42:26.174Z,44.65
2022-08-20T02:44:54.878Z,46.20
2022-08-20T02:47:21.736Z,54.13
2022-08-20T02:49:48.423Z,58.92
2022-08-20T02:52:15.113Z,64.18
2022-08-20T02:54:41.800Z,49.40
2022-08-20T02:57:16.603Z,45.80
2022-08-20T02:59:44.542Z,62.05
2022-08-20T03:02:12.038Z,67.75
2022-08-20T03:04:39.311Z,84.78
2022-08-20T03:07:07.038Z,77.88
2022-08-20T03:09:33.795Z,66.15
2022-08-20T03:12:00.863Z,54.80
2022-08-20T03:14:27.686Z,66.90
2022-08-20T03:16:54.455Z,71.93
2022-08-20T03:19:21.215Z,66.55
2022-08-20T03:21:47.883Z,75.55
2022-08-20T03:24:15.003Z,72.32
2022-08-20T03:26:42.486Z,62.45
2022-08-20T03:29:09.544Z,72.60
2022-08-20T03:31:36.717Z,63.08
2022-08-20T03:34:03.442Z,68.35
2022-08-20T03:36:30.616Z,71.43
2022-08-20T03:38:59.078Z,60.88
2022-08-20T03:41:26.200Z,55.50
2022-08-20T03:43:53.422Z,58.30
2022-08-20T03:46:22.099Z,57.05
2022-08-20T03:48:58.698Z,61.55
2022-08-20T03:51:29.459Z,61.95
2022-08-20T03:53:56.958Z,58.50
2022-08-20T03:56:23.667Z,61.47
2022-08-20T03:58:50.404Z,65.35
2022-08-20T04:01:44.882Z,73.38
2022-08-20T04:04:04.268Z,62.20
2022-08-20T04:06:30.975Z,59.88
2022-08-20T04:08:58.786Z,51.67
2022-08-20T04:11:25.508Z,47.30
2022-08-20T04:13:52.219Z,68.35
2022-08-20T04:16:19.372Z,70.30
2022-08-20T04:19:01.344Z,59.08
2022-08-20T04:21:32.800Z,64.28
2022-08-20T04:24:00.588Z,68.78
2022-08-20T04:26:27.390Z,59.67
2022-08-20T04:28:55.439Z,48.55
2022-08-20T04:31:25.419Z,61.97
2022-08-20T04:33:52.792Z,64.60
2022-08-20T04:36:19.587Z,72.85
2022-08-20T04:38:47.880Z,58.78
2022-08-20T04:41:23.176Z,63.95
2022-08-20T04:43:54.838Z,53.15
2022-08-20T04:46:25.406Z,57.17
2022-08-20T04:48:52.345Z,53.05
2022-08-20T04:51:19.290Z,56.05
2022-08-20T04:53:52.008Z,50.42
2022-08-20T04:56:23.760Z,51.95
2022-08-20T04:58:52.432Z,48.10
2022-08-20T05:01:19.851Z,52.03
2022-08-20T05:03:49.345Z,68.05
2022-08-20T05:06:17.840Z,45.97
2022-08-20T05:08:45.326Z,40.75
2022-08-20T05:11:30.149Z,38.25
2022-08-20T05:13:58.927Z,33.22
2022-08-20T05:16:25.666Z,41.22
2022-08-20T05:18:52.989Z,38.28
2022-08-20T05:21:20.794Z,37.22
2022-08-20T05:23:49.106Z,33.88
2022-08-20T05:26:16.539Z,35.42
2022-08-20T05:28:53.900Z,32.67
2022-08-20T05:31:31.694Z,33.13
2022-08-20T05:34:12.542Z,32.78
2022-08-20T05:36:42.224Z,34.33
2022-08-20T05:39:10.012Z,31.13
2022-08-20T05:41:38.449Z,31.85
2022-08-20T05:44:05.724Z,28.67
2022-08-20T05:46:32.477Z,29.45
2022-08-20T05:49:01.784Z,28.75
2022-08-20T05:51:30.010Z,30.58
2022-08-20T05:53:59.077Z,28.33
2022-08-20T05:56:27.375Z,25.63
2022-08-20T05:58:54.290Z,25.88
2022-08-20T06:01:21.366Z,26.15
2022-08-20T06:04:06.835Z,22.38
2022-08-20T06:06:44.872Z,26.83
2022-08-20T06:09:14.819Z,25.90
2022-08-20T06:11:41.665Z,24.42
2022-08-20T06:14:08.615Z,23.50
2022-08-20T06:16:37.122Z,25.95
2022-08-20T06:19:04.955Z,23.90
2022-08-20T06:21:32.222Z,24.50
2022-08-20T06:24:01.166Z,26.23
2022-08-20T06:26:30.076Z,24.00
2022-08-20T06:28:59.848Z,26.92
2022-08-20T06:31:27.482Z,26.48
2022-08-20T06:33:54.464Z,28.58
2022-08-20T06:36:21.451Z,30.23
2022-08-20T06:38:48.311Z,27.65
2022-08-20T06:41:15.038Z,35.33
2022-08-20T06:43:41.776Z,33.30
2022-08-20T06:46:08.662Z,35.20
2022-08-20T06:48:36.641Z,37.60
2022-08-20T06:51:03.355Z,33.95
2022-08-20T06:53:30.052Z,37.47
2022-08-20T06:55:58.887Z,31.00
2022-08-20T06:58:36.976Z,32.97
2022-08-20T07:01:10.338Z,35.05
2022-08-20T07:03:38.681Z,30.02
2022-08-20T07:06:05.963Z,29.10
2022-08-20T07:08:33.339Z,28.80
2022-08-20T07:11:00.101Z,26.90
2022-08-20T07:13:28.184Z,23.60
2022-08-20T07:15:55.818Z,23.33
2022-08-20T07:18:28.367Z,21.90
2022-08-20T07:20:57.265Z,22.70
2022-08-20T07:23:27.859Z,20.92
2022-08-20T07:25:55.731Z,19.13
2022-08-20T07:28:28.505Z,16.50
2022-08-20T07:31:16.065Z,17.48
2022-08-20T07:33:44.309Z,15.18
2022-08-20T07:36:12.486Z,14.05
2022-08-20T07:38:42.045Z,14.68
2022-08-20T07:41:14.688Z,13.98
2022-08-20T07:43:45.465Z,14.85
2022-08-20T07:46:15.170Z,17.83
2022-08-20T07:48:46.628Z,16.17
2022-08-20T07:51:17.652Z,18.75
2022-08-20T07:53:45.691Z,18.02
2022-08-20T07:56:15.942Z,19.60
2022-08-20T07:58:50.066Z,17.30
2022-08-20T08:01:25.857Z,22.00
2022-08-20T08:03:53.182Z,22.80
2022-08-20T08:06:29.198Z,22.77
2022-08-20T08:09:03.695Z,19.30
2022-08-20T08:11:32.427Z,24.30
2022-08-20T08:13:59.992Z,22.65
2022-08-20T08:16:28.196Z,20.63
2022-08-20T08:18:58.483Z,21.10
2022-08-20T08:21:26.403Z,21.17
2022-08-20T08:23:53.503Z,17.58
2022-08-20T08:26:20.537Z,20.10
2022-08-20T08:28:47.378Z,21.52
2022-08-20T08:31:15.207Z,20.67
2022-08-20T08:33:42.462Z,18.45
2022-08-20T08:36:14.635Z,21.42
2022-08-20T08:38:44.166Z,22.35
2022-08-20T08:41:19.760Z,20.45
2022-08-20T08:43:55.596Z,18.33
2022-08-20T08:46:29.129Z,19.88
2022-08-20T08:49:12.421Z,21.02
2022-08-20T08:51:50.289Z,18.75
2022-08-20T08:54:26.426Z,15.77
2022-08-20T08:56:54.087Z,19.43
2022-08-20T08:59:22.474Z,16.30
2022-08-20T09:01:58.562Z,16.50
2022-08-20T09:04:34.539Z,18.20
2022-08-20T09:07:04.433Z,17.33
2022-08-20T09:09:39.391Z,16.02
2022-08-20T09:12:14.925Z,17.42
2022-08-20T09:14:41.575Z,19.57
2022-08-20T09:17:08.638Z,19.60
2022-08-20T09:19:35.517Z,23.85
2022-08-20T09:22:10.484Z,20.83
2022-08-20T09:24:38.062Z,18.75
2022-08-20T09:27:05.158Z,16.63
2022-08-20T09:29:32.930Z,16.80
2022-08-20T09:32:18.953Z,18.45
2022-08-20T09:34:52.624Z,16.55
2022-08-20T09:37:19.625Z,21.75
2022-08-20T09:39:47.910Z,18.55
2022-08-20T09:42:19.104Z,17.48
2022-08-20T09:44:46.405Z,16.85
2022-08-20T09:47:13.776Z,18.17
2022-08-20T09:49:40.991Z,15.98
2022-08-20T09:52:10.368Z,13.05
2022-08-20T09:54:39.695Z,16.73
2022-08-20T09:57:15.137Z,14.27
2022-08-20T09:59:42.464Z,14.13
2022-08-20T10:02:09.251Z,15.43
2022-08-20T10:04:36.091Z,15.90
2022-08-20T10:07:07.615Z,15.43
2022-08-20T10:09:35.892Z,11.93
2022-08-20T10:12:03.533Z,11.77
2022-08-20T10:14:30.948Z,12.80
2022-08-20T10:16:59.379Z,12.27
2022-08-20T10:19:28.307Z,12.48
2022-08-20T10:21:55.111Z,11.70
2022-08-20T10:24:22.564Z,15.63
2022-08-20T10:26:50.114Z,11.02
2022-08-20T10:29:17.248Z,12.18
2022-08-20T10:31:43.991Z,11.15
2022-08-20T10:34:10.714Z,11.20
2022-08-20T10:36:37.720Z,12.63
2022-08-20T10:39:04.865Z,16.42
2022-08-20T10:41:31.772Z,14.13
2022-08-20T10:43:58.481Z,14.10
2022-08-20T10:46:25.471Z,14.00
2022-08-20T10:48:52.302Z,14.02
2022-08-20T10:51:21.894Z,15.63
2022-08-20T10:53:59.763Z,13.50
2022-08-20T10:56:26.488Z,14.35
2022-08-20T10:58:53.590Z,19.13
2022-08-20T11:01:32.935Z,12.48
2022-08-20T11:04:01.880Z,13.45
2022-08-20T11:06:28.642Z,13.02
2022-08-20T11:08:57.043Z,11.18
2022-08-20T11:11:24.246Z,14.50
2022-08-20T11:13:51.046Z,12.18
2022-08-20T11:16:17.809Z,10.75
2022-08-20T11:18:47.388Z,12.18
2022-08-20T11:21:16.654Z,10.30
2022-08-20T11:23:43.340Z,12.13
2022-08-20T11:26:10.903Z,11.52
2022-08-20T11:28:37.614Z,12.20
2022-08-20T11:31:04.431Z,11.68
2022-08-20T11:33:31.203Z,12.07
2022-08-20T11:35:57.897Z,10.13
2022-08-20T11:38:24.873Z,10.70
2022-08-20T11:40:51.763Z,11.57
2022-08-20T11:43:18.699Z,12.70
2022-08-20T11:45:48.358Z,11.10
2022-08-20T11:48:15.075Z,10.18
2022-08-20T11:50:41.961Z,16.95
2022-08-20T11:53:08.914Z,11.05
2022-08-20T11:55:36.790Z,12.52
2022-08-20T11:58:03.987Z,11.15
2022-08-20T12:00:33.892Z,11.27
2022-08-20T12:03:02.410Z,11.77
2022-08-20T12:05:29.947Z,16.65
2022-08-20T12:07:59.718Z,12.13
2022-08-20T12:10:28.059Z,12.02
2022-08-20T12:12:55.601Z,13.10
2022-08-20T12:15:22.461Z,10.60
2022-08-20T12:17:49.124Z,13.05
2022-08-20T12:20:16.629Z,11.77
2022-08-20T12:22:44.558Z,12.93
2022-08-20T12:25:13.212Z,11.40
2022-08-20T12:27:41.146Z,12.45
2022-08-20T12:30:15.314Z,15.88
2022-08-20T12:32:42.587Z,11.18
2022-08-20T12:35:11.007Z,12.63
2022-08-20T12:37:38.356Z,12.07
2022-08-20T12:40:09.749Z,13.18
2022-08-20T12:42:37.111Z,11.13
2022-08-20T12:45:04.905Z,12.32
2022-08-20T12:47:34.519Z,11.52
2022-08-20T12:50:08.930Z,14.43
2022-08-20T12:52:35.947Z,10.27
2022-08-20T12:55:04.827Z,10.60
2022-08-20T12:58:05.300Z,11.57
2022-08-20T13:00:50.439Z,11.43
2022-08-20T13:03:18.647Z,12.70
2022-08-20T13:05:45.333Z,10.88
2022-08-20T13:08:12.619Z,12.18
2022-08-20T13:10:50.794Z,12.65
2022-08-20T13:13:20.373Z,10.02
2022-08-20T13:15:48.861Z,12.18
2022-08-20T13:18:15.603Z,13.07
2022-08-20T13:20:42.411Z,10.77
2022-08-20T13:23:09.280Z,11.05
2022-08-20T13:25:36.054Z,11.82
2022-08-20T13:28:04.454Z,10.38
2022-08-20T13:30:33.884Z,13.10
2022-08-20T13:33:01.033Z,15.60
2022-08-20T13:35:28.334Z,12.55
2022-08-20T13:37:55.048Z,12.05
2022-08-20T13:40:25.824Z,13.10
2022-08-20T13:42:52.653Z,12.98
2022-08-20T13:45:23.065Z,11.63
2022-08-20T13:47:57.083Z,12.65
2022-08-20T13:50:25.949Z,12.27
2022-08-20T13:52:52.702Z,15.15
2022-08-20T13:55:22.544Z,6.82
2022-08-20T13:57:49.852Z,8.25
2022-08-20T14:00:31.902Z,7.20
2022-08-20T14:03:00.107Z,6.53
2022-08-20T14:05:26.893Z,7.88
2022-08-20T14:07:53.619Z,6.28
2022-08-20T14:10:25.319Z,4.82
2022-08-20T14:12:53.098Z,5.55
2022-08-20T14:15:20.039Z,6.63
2022-08-20T14:17:53.457Z,8.25
2022-08-20T14:20:24.330Z,7.55
2022-08-20T14:22:51.094Z,5.03
2022-08-20T14:25:20.373Z,3.28
2022-08-20T14:27:47.284Z,3.63
2022-08-20T14:30:18.092Z,3.78
2022-08-20T14:32:44.853Z,3.33
2022-08-20T14:35:11.705Z,3.08
2022-08-20T14:37:42.408Z,2.97
2022-08-20T14:40:12.506Z,2.60
2022-08-20T14:42:39.833Z,3.20
2022-08-20T14:45:08.239Z,5.28
2022-08-20T14:47:38.468Z,2.70
2022-08-20T14:50:12.339Z,3.17
2022-08-20T14:52:39.303Z,4.72
2022-08-20T14:55:09.007Z,5.22
2022-08-20T14:57:35.890Z,7.63
2022-08-20T15:00:02.932Z,4.88
2022-08-20T15:02:31.011Z,3.65
2022-08-20T15:04:57.797Z,3.00
2022-08-20T15:07:27.896Z,3.90
2022-08-20T15:09:56.478Z,4.63
2022-08-20T15:12:24.461Z,5.47
2022-08-20T15:14:51.204Z,4.15
2022-08-20T15:17:23.622Z,4.55
2022-08-20T15:19:50.723Z,5.72
2022-08-20T15:22:17.843Z,5.22
2022-08-20T15:24:44.602Z,4.38
2022-08-20T15:27:22.750Z,5.90
2022-08-20T15:29:50.673Z,6.53
2022-08-20T15:32:18.188Z,4.43
2022-08-20T15:34:44.939Z,7.20
2022-08-20T15:37:21.195Z,8.38
2022-08-20T15:39:49.050Z,4.35
2022-08-20T15:42:16.622Z,4.28
2022-08-20T15:44:43.958Z,4.00
2022-08-20T15:47:16.424Z,3.28
2022-08-20T15:49:44.818Z,3.67
2022-08-20T15:52:12.344Z,1.48
2022-08-20T15:54:39.628Z,2.78
2022-08-20T15:57:23.590Z,1.98
2022-08-20T16:00:13.067Z,4.70
2022-08-20T16:02:51.785Z,2.25
2022-08-20T16:05:44.404Z,4.50
2022-08-20T16:08:40.991Z,3.30
2022-08-20T16:11:36.476Z,5.03
2022-08-20T16:14:12.574Z,3.80
2022-08-20T16:17:01.842Z,1.77
2022-08-20T16:19:36.463Z,4.38
2022-08-20T16:22:04.572Z,3.25
2022-08-20T16:24:32.347Z,3.88
2022-08-20T16:27:18.422Z,2.60
2022-08-20T16:30:03.246Z,5.50
2022-08-20T16:32:48.773Z,3.75
2022-08-20T16:35:30.651Z,1.42
2022-08-20T16:38:21.125Z,1.55
2022-08-20T16:40:50.981Z,5.00
2022-08-20T16:43:26.010Z,2.60
2022-08-20T16:46:00.255Z,1.88
2022-08-20T16:48:35.418Z,0.80
2022-08-20T16:51:16.897Z,2.25
2022-08-20T16:53:43.631Z,1.17
2022-08-20T16:56:10.564Z,1.67
2022-08-20T16:58:37.445Z,3.08
2022-08-20T17:01:11.854Z,3.88
2022-08-20T17:03:40.623Z,3.47
2022-08-20T17:06:26.698Z,2.92
2022-08-20T17:08:53.809Z,6.22
2022-08-20T17:11:29.120Z,3.53
2022-08-20T17:14:15.051Z,5.05
2022-08-20T17:16:48.349Z,8.52
2022-08-20T17:19:33.779Z,6.97
2022-08-20T17:22:16.694Z,3.33
2022-08-20T17:24:43.581Z,6.32
2022-08-20T17:27:14.753Z,7.00
2022-08-20T17:29:52.027Z,6.80
2022-08-20T17:32:25.942Z,6.15
2022-08-20T17:34:55.538Z,3.95
2022-08-20T17:37:27.102Z,7.43
2022-08-20T17:40:15.019Z,5.80
2022-08-20T17:42:51.987Z,6.78
2022-08-20T17:45:24.804Z,6.13
2022-08-20T17:47:52.656Z,6.03
2022-08-20T17:50:23.468Z,5.78
2022-08-20T17:52:59.426Z,12.60
2022-08-20T17:55:26.475Z,8.18
2022-08-20T17:57:56.797Z,5.93
2022-08-20T18:00:26.857Z,7.32
2022-08-20T18:02:59.679Z,5.97
2022-08-20T18:05:30.046Z,6.75
2022-08-20T18:08:16.141Z,7.30
2022-08-20T18:11:06.711Z,7.15
2022-08-20T18:13:45.000Z,5.88
2022-08-20T18:16:25.696Z,5.05
2022-08-20T18:19:08.551Z,5.43
2022-08-20T18:21:44.414Z,5.55
2022-08-20T18:24:15.530Z,5.82
2022-08-20T18:26:52.077Z,6.03
2022-08-20T18:29:27.531Z,8.15
2022-08-20T18:31:58.988Z,5.32
2022-08-20T18:34:28.755Z,6.60
2022-08-20T18:37:03.082Z,5.97
2022-08-20T18:39:41.931Z,5.55
2022-08-20T18:42:24.347Z,4.63
2022-08-20T18:44:53.124Z,4.25
2022-08-20T18:47:29.326Z,5.38
2022-08-20T18:50:02.216Z,6.63
2022-08-20T18:52:31.580Z,6.40
2022-08-20T18:55:02.636Z,7.97
2022-08-20T18:57:55.602Z,10.18
2022-08-20T19:00:26.386Z,5.43
2022-08-20T19:03:03.046Z,7.22
2022-08-20T19:05:46.754Z,5.97
2022-08-20T19:08:20.628Z,7.45
2022-08-20T19:10:53.075Z,9.85
2022-08-20T19:13:48.122Z,5.72
2022-08-20T19:16:36.961Z,9.20
2022-08-20T19:19:04.173Z,8.10
2022-08-20T19:21:35.629Z,9.48
2022-08-20T19:24:06.496Z,9.07
2022-08-20T19:26:44.109Z,7.80
2022-08-20T19:29:17.212Z,11.05
2022-08-20T19:31:44.546Z,10.63
2022-08-20T19:34:20.259Z,13.18
2022-08-20T19:37:34.933Z,7.82
2022-08-20T19:40:28.533Z,9.57
2022-08-20T19:42:58.392Z,11.18
2022-08-20T19:45:40.832Z,10.20
2022-08-20T19:48:08.005Z,7.97
2022-08-20T19:51:00.927Z,8.57
2022-08-20T19:53:33.776Z,8.13
2022-08-20T19:56:12.258Z,9.13
2022-08-20T19:58:40.074Z,12.27
2022-08-20T20:01:17.398Z,9.10
2022-08-20T20:04:03.165Z,7.38
2022-08-20T20:06:34.700Z,7.90
2022-08-20T20:09:05.559Z,9.73
2022-08-20T20:11:40.357Z,10.65
2022-08-20T20:14:10.433Z,8.23
2022-08-20T20:16:39.733Z,14.70
2022-08-20T20:19:25.760Z,10.48
2022-08-20T20:22:05.799Z,8.40
2022-08-20T20:24:45.522Z,8.52
2022-08-20T20:27:20.866Z,10.13
2022-08-20T20:29:49.157Z,9.68
2022-08-20T20:32:20.753Z,10.32
2022-08-20T20:34:55.770Z,10.82
2022-08-20T20:37:49.435Z,10.32
2022-08-20T20:40:28.070Z,9.30
2022-08-20T20:43:09.269Z,10.07
2022-08-20T20:45:40.899Z,7.22
2022-08-20T20:48:24.291Z,8.55
2022-08-20T20:50:52.092Z,9.55
2022-08-20T20:53:48.428Z,10.52
2022-08-20T20:56:41.617Z,8.00
2022-08-20T20:59:10.309Z,14.48
2022-08-20T21:01:48.954Z,9.75
2022-08-20T21:04:16.989Z,10.43
2022-08-20T21:06:43.918Z,10.65
2022-08-20T21:09:10.706Z,9.65
2022-08-20T21:11:37.460Z,8.77
2022-08-20T21:14:04.151Z,8.73
2022-08-20T21:16:30.879Z,10.77
2022-08-20T21:18:58.336Z,12.15
2022-08-20T21:21:25.063Z,14.13
2022-08-20T21:23:51.704Z,14.93
2022-08-20T21:26:18.693Z,10.70
2022-08-20T21:28:45.526Z,7.65
2022-08-20T21:31:13.032Z,10.82
2022-08-20T21:33:39.704Z,10.00
2022-08-20T21:36:06.891Z,9.73
2022-08-20T21:38:33.549Z,12.25
2022-08-20T21:41:00.483Z,10.07
2022-08-20T21:43:31.345Z,13.48
2022-08-20T21:46:01.417Z,12.70
2022-08-20T21:48:29.138Z,10.40
2022-08-20T21:50:55.783Z,7.75
2022-08-20T21:53:23.102Z,10.10
2022-08-20T21:55:50.010Z,8.88
2022-08-20T21:58:17.777Z,9.18
2022-08-20T22:00:53.846Z,10.05
2022-08-20T22:03:23.101Z,10.98
2022-08-20T22:05:50.730Z,10.02
2022-08-20T22:08:18.547Z,12.75
2022-08-20T22:10:45.397Z,14.45
2022-08-20T22:13:13.218Z,12.52
2022-08-20T22:15:40.463Z,11.80
2022-08-20T22:18:07.655Z,15.07
2022-08-20T22:20:34.891Z,14.05
2022-08-20T22:23:04.630Z,11.30
2022-08-20T22:25:31.435Z,9.95
2022-08-20T22:27:58.242Z,10.70
2022-08-20T22:30:25.753Z,8.85
2022-08-20T22:32:55.743Z,10.25
2022-08-20T22:35:22.889Z,14.27
2022-08-20T22:37:49.578Z,11.57
2022-08-20T22:40:16.386Z,9.10
2022-08-20T22:42:43.147Z,12.07
2022-08-20T22:45:14.709Z,9.40
2022-08-20T22:47:42.900Z,12.52
2022-08-20T22:50:11.336Z,11.20
2022-08-20T22:52:40.104Z,10.77
2022-08-20T22:55:07.738Z,9.45
2022-08-20T22:57:36.940Z,10.80
2022-08-20T23:00:13.149Z,11.70
2022-08-20T23:02:41.858Z,11.57
2022-08-20T23:05:15.054Z,10.15
2022-08-20T23:07:41.791Z,9.50
2022-08-20T23:10:09.019Z,10.43
2022-08-20T23:12:35.751Z,10.32
2022-08-20T23:15:02.484Z,12.13
2022-08-20T23:17:29.143Z,11.20
2022-08-20T23:19:56.333Z,14.90
2022-08-20T23:22:23.035Z,9.05
2022-08-20T23:24:49.984Z,11.48
2022-08-20T23:27:19.527Z,11.57
2022-08-20T23:29:47.243Z,9.32
2022-08-20T23:32:14.077Z,10.73
2022-08-20T23:34:41.350Z,14.10
2022-08-20T23:37:08.696Z,9.93
2022-08-20T23:39:35.491Z,10.27
2022-08-20T23:42:02.383Z,9.18
2022-08-20T23:44:29.478Z,11.02
2022-08-20T23:46:58.991Z,10.90
2022-08-20T23:49:28.030Z,10.90
2022-08-20T23:51:55.296Z,10.20
2022-08-20T23:54:22.031Z,11.40
2022-08-20T23:56:49.438Z,8.48
2022-08-20T23:59:16.284Z,9.43
